createdAt,value
2019-01-09T00:01:38.114Z,99669.60
2019-01-09T00:03:39.592Z,99667.66
2019-01-09T00:05:40.991Z,99675.21
2019-01-09T00:07:42.449Z,99671.18
2019-01-09T00:09:43.851Z,99677.47
2019-01-09T00:11:45.230Z,99671.81
2019-01-09T00:13:47.030Z,99670.89
2019-01-09T00:15:48.414Z,99672.69
2019-01-09T00:17:49.893Z,99666.36
2019-01-09T00:19:51.341Z,99671.91
2019-01-09T00:21:52.727Z,99668.90
2019-01-09T00:23:54.116Z,99675.81
2019-01-09T00:25:55.803Z,99674.41
2019-01-09T00:27:57.290Z,99678.12
2019-01-09T00:29:58.683Z,99681.95
2019-01-09T00:32:00.129Z,99681.34
2019-01-09T00:34:01.524Z,99689.88
2019-01-09T00:36:03.166Z,99684.02
2019-01-09T00:38:04.559Z,99683.66
2019-01-09T00:40:07.641Z,99689.02
2019-01-09T00:42:09.304Z,99689.80
2019-01-09T00:44:10.788Z,99690.70
2019-01-09T00:46:12.270Z,99690.01
2019-01-09T00:48:13.707Z,99694.97
2019-01-09T00:50:15.107Z,99700.77
2019-01-09T00:52:16.592Z,99700.11
2019-01-09T00:54:18.203Z,99706.23
2019-01-09T00:56:19.681Z,99704.64
2019-01-09T00:58:21.160Z,99708.84
2019-01-09T01:00:22.860Z,99706.53
2019-01-09T01:03:02.761Z,99712.70
2019-01-09T01:05:46.266Z,99713.92
2019-01-09T01:08:28.328Z,99720.23
2019-01-09T01:11:20.719Z,99721.77
2019-01-09T01:13:42.879Z,99720.00
2019-01-09T01:16:05.199Z,99725.13
2019-01-09T01:18:34.604Z,99734.20
2019-01-09T01:20:53.540Z,99732.63
2019-01-09T01:23:06.584Z,99739.12
2019-01-09T01:25:42.113Z,99748.61
2019-01-09T01:27:51.907Z,99745.76
2019-01-09T01:30:33.901Z,99748.03
2019-01-09T01:32:47.278Z,99755.67
2019-01-09T01:35:30.392Z,99747.40
2019-01-09T01:37:46.185Z,99745.81
2019-01-09T01:40:02.436Z,99751.42
2019-01-09T01:42:39.531Z,99758.06
2019-01-09T01:45:04.920Z,99753.45
2019-01-09T01:47:29.511Z,99755.36
2019-01-09T01:49:56.060Z,99762.61
2019-01-09T01:52:21.041Z,99761.20
2019-01-09T01:54:34.282Z,99770.22
2019-01-09T01:57:14.665Z,99769.38
2019-01-09T01:59:30.115Z,99772.63
2019-01-09T02:01:43.187Z,99774.68
2019-01-09T02:03:58.875Z,99772.80
2019-01-09T02:06:08.655Z,99774.81
2019-01-09T02:08:27.679Z,99777.58
2019-01-09T02:10:46.596Z,99789.92
2019-01-09T02:13:17.181Z,99784.16
2019-01-09T02:15:33.012Z,99793.73
2019-01-09T02:17:40.158Z,99789.92
2019-01-09T02:19:47.243Z,99786.38
2019-01-09T02:22:20.110Z,99794.50
2019-01-09T02:24:48.193Z,99799.01
2019-01-09T02:27:16.456Z,99792.19
2019-01-09T02:29:52.229Z,99796.41
2019-01-09T02:32:24.348Z,99803.09
2019-01-09T02:34:25.741Z,99812.83
2019-01-09T02:36:27.164Z,99809.75
2019-01-09T02:38:28.560Z,99800.30
2019-01-09T02:40:29.993Z,99808.74
2019-01-09T02:42:31.406Z,99809.45
2019-01-09T02:44:32.820Z,99814.02
2019-01-09T02:46:34.411Z,99816.59
2019-01-09T02:48:35.814Z,99815.46
2019-01-09T02:50:37.199Z,99808.98
2019-01-09T02:52:38.642Z,99814.52
2019-01-09T02:54:40.057Z,99822.88
2019-01-09T02:56:41.441Z,99819.70
2019-01-09T02:58:42.815Z,99820.08
2019-01-09T03:00:44.254Z,99822.69
2019-01-09T03:02:45.663Z,99824.89
2019-01-09T03:04:47.052Z,99823.66
2019-01-09T03:06:48.446Z,99826.73
2019-01-09T03:08:49.965Z,99829.89
2019-01-09T03:10:51.356Z,99826.35
2019-01-09T03:12:52.734Z,99833.58
2019-01-09T03:14:54.527Z,99831.31
2019-01-09T03:16:55.906Z,99825.48
2019-01-09T03:18:57.298Z,99834.39
2019-01-09T03:20:58.755Z,99834.88
2019-01-09T03:23:00.127Z,99828.25
2019-01-09T03:25:01.510Z,99835.37
2019-01-09T03:27:02.929Z,99833.19
2019-01-09T03:29:04.434Z,99830.14
2019-01-09T03:31:05.926Z,99836.62
2019-01-09T03:33:07.347Z,99839.42
2019-01-09T03:35:08.872Z,99843.75
2019-01-09T03:37:10.254Z,99844.88
2019-01-09T03:39:11.679Z,99846.30
2019-01-09T03:41:13.111Z,99848.02
2019-01-09T03:43:14.524Z,99848.69
2019-01-09T03:45:15.914Z,99851.16
2019-01-09T03:47:17.719Z,99853.12
2019-01-09T03:49:19.134Z,99856.73
2019-01-09T03:51:20.512Z,99858.14
2019-01-09T03:53:21.933Z,99848.98
2019-01-09T03:55:23.392Z,99847.91
2019-01-09T03:57:24.828Z,99862.45
2019-01-09T03:59:26.514Z,99854.03
2019-01-09T04:01:27.888Z,99863.27
2019-01-09T04:03:29.267Z,99863.42
2019-01-09T04:05:30.693Z,99864.63
2019-01-09T04:07:32.074Z,99867.50
2019-01-09T04:09:33.436Z,99870.08
2019-01-09T04:11:35.086Z,99876.34
2019-01-09T04:13:36.462Z,99876.08
2019-01-09T04:15:37.845Z,99878.86
2019-01-09T04:17:39.256Z,99880.97
2019-01-09T04:19:40.673Z,99878.34
2019-01-09T04:21:42.038Z,99878.52
2019-01-09T04:23:43.442Z,99882.33
2019-01-09T04:25:44.826Z,99884.11
2019-01-09T04:27:46.203Z,99885.31
2019-01-09T04:29:47.602Z,99893.77
2019-01-09T04:31:49.046Z,99891.02
2019-01-09T04:33:50.492Z,99894.00
2019-01-09T04:35:51.873Z,99897.17
2019-01-09T04:37:53.443Z,99901.12
2019-01-09T04:39:54.854Z,99898.56
2019-01-09T04:41:56.247Z,99903.65
2019-01-09T04:43:57.622Z,99905.27
2019-01-09T04:45:59.051Z,99909.27
2019-01-09T04:48:00.457Z,99904.00
2019-01-09T04:50:03.345Z,99911.22
2019-01-09T04:52:04.732Z,99915.19
2019-01-09T04:54:06.205Z,99906.17
2019-01-09T04:56:07.559Z,99907.38
2019-01-09T04:58:09.006Z,99912.98
2019-01-09T05:00:11.151Z,99909.59
2019-01-09T05:02:12.558Z,99912.98
2019-01-09T05:04:13.968Z,99907.70
2019-01-09T05:06:15.350Z,99924.80
2019-01-09T05:08:16.734Z,99916.94
2019-01-09T05:10:18.396Z,99917.86
2019-01-09T05:12:19.780Z,99920.76
2019-01-09T05:14:21.147Z,99921.83
2019-01-09T05:16:22.661Z,99927.31
2019-01-09T05:18:24.064Z,99931.62
2019-01-09T05:20:25.438Z,99933.97
2019-01-09T05:22:26.824Z,99930.16
2019-01-09T05:24:28.495Z,99933.93
2019-01-09T05:26:29.877Z,99937.81
2019-01-09T05:28:31.255Z,99935.38
2019-01-09T05:30:32.679Z,99934.88
2019-01-09T05:32:34.096Z,99936.77
2019-01-09T05:34:35.490Z,99939.92
2019-01-09T05:36:36.905Z,99937.45
2019-01-09T05:38:38.315Z,99942.41
2019-01-09T05:40:39.695Z,99943.55
2019-01-09T05:42:41.113Z,99951.73
2019-01-09T05:44:42.497Z,99944.52
2019-01-09T05:46:43.875Z,99934.13
2019-01-09T05:48:45.260Z,99952.95
2019-01-09T05:50:46.930Z,99953.63
2019-01-09T05:52:48.325Z,99950.35
2019-01-09T05:54:49.707Z,99956.52
2019-01-09T05:56:51.132Z,99957.37
2019-01-09T05:58:52.517Z,99971.80
2019-01-09T06:00:53.900Z,99960.09
2019-01-09T06:02:55.315Z,99964.32
2019-01-09T06:04:56.797Z,99963.02
2019-01-09T06:06:58.186Z,99960.98
2019-01-09T06:08:59.889Z,99967.16
2019-01-09T06:11:01.277Z,99971.06
2019-01-09T06:13:02.659Z,99968.80
2019-01-09T06:15:05.171Z,99975.52
2019-01-09T06:17:06.560Z,99981.22
2019-01-09T06:19:08.138Z,99979.18
2019-01-09T06:21:09.557Z,99985.92
2019-01-09T06:23:10.930Z,99985.58
2019-01-09T06:25:12.308Z,99989.25
2019-01-09T06:27:13.709Z,99975.38
2019-01-09T06:29:15.101Z,99994.44
2019-01-09T06:31:16.505Z,99987.03
2019-01-09T06:33:17.927Z,99996.55
2019-01-09T06:35:19.396Z,99989.30
2019-01-09T06:37:27.444Z,100000.84
2019-01-09T06:39:24.116Z,99991.48
2019-01-09T06:41:25.545Z,99997.27
2019-01-09T06:43:26.925Z,100003.75
2019-01-09T06:45:28.410Z,100007.34
2019-01-09T06:47:29.835Z,99993.55
2019-01-09T06:49:31.223Z,99998.17
2019-01-09T06:51:32.605Z,100006.94
2019-01-09T06:53:34.053Z,100013.50
2019-01-09T06:55:35.471Z,100017.47
2019-01-09T06:57:36.856Z,100018.66
2019-01-09T06:59:38.234Z,100016.26
2019-01-09T07:01:39.658Z,100014.33
2019-01-09T07:03:41.055Z,100027.30
2019-01-09T07:05:42.475Z,100026.31
2019-01-09T07:07:43.869Z,100032.08
2019-01-09T07:09:45.288Z,100034.00
2019-01-09T07:11:46.687Z,100036.11
2019-01-09T07:13:48.120Z,100037.25
2019-01-09T07:15:49.501Z,100038.24
2019-01-09T07:17:50.888Z,100042.52
2019-01-09T07:19:52.597Z,100041.33
2019-01-09T07:21:53.974Z,100045.91
2019-01-09T07:23:55.354Z,100045.51
2019-01-09T07:25:56.770Z,100050.29
2019-01-09T07:27:58.398Z,100050.43
2019-01-09T07:29:59.782Z,100052.23
2019-01-09T07:32:01.167Z,100059.45
2019-01-09T07:34:02.729Z,100050.64
2019-01-09T07:36:04.114Z,100060.83
2019-01-09T07:38:05.488Z,100058.77
2019-01-09T07:40:07.046Z,100066.23
2019-01-09T07:42:08.429Z,100062.02
2019-01-09T07:44:09.806Z,100063.70
2019-01-09T07:46:11.222Z,100064.69
2019-01-09T07:48:12.688Z,100063.72
2019-01-09T07:50:14.133Z,100068.75
2019-01-09T07:52:15.617Z,100066.92
2019-01-09T07:54:17.008Z,100068.63
2019-01-09T07:56:18.408Z,100074.19
2019-01-09T07:58:19.865Z,100077.67
2019-01-09T08:00:21.485Z,100076.95
2019-01-09T08:02:22.900Z,100076.97
2019-01-09T08:04:24.300Z,100079.70
2019-01-09T08:06:25.717Z,100081.48
2019-01-09T08:08:27.106Z,100086.30
2019-01-09T08:10:28.478Z,100084.67
2019-01-09T08:12:29.902Z,100094.55
2019-01-09T08:14:31.288Z,100091.89
2019-01-09T08:16:32.673Z,100101.27
2019-01-09T08:18:34.382Z,100104.97
2019-01-09T08:20:35.769Z,100116.64
2019-01-09T08:22:37.164Z,100117.61
2019-01-09T08:24:38.794Z,100122.50
2019-01-09T08:26:40.175Z,100121.28
2019-01-09T08:28:41.571Z,100119.47
2019-01-09T08:30:42.981Z,100123.35
2019-01-09T08:32:44.400Z,100131.25
2019-01-09T08:34:45.811Z,100131.99
2019-01-09T08:36:47.191Z,100138.66
2019-01-09T08:38:48.616Z,100137.52
2019-01-09T08:40:50.581Z,100141.31
2019-01-09T08:42:52.111Z,100146.59
2019-01-09T08:44:53.725Z,100144.32
2019-01-09T08:46:55.115Z,100149.27
2019-01-09T08:48:56.502Z,100144.98
2019-01-09T08:50:58.279Z,100155.86
2019-01-09T08:52:59.671Z,100157.73
2019-01-09T08:55:01.054Z,100166.44
2019-01-09T08:57:02.683Z,100162.53
2019-01-09T08:59:04.167Z,100171.40
2019-01-09T09:01:05.596Z,100174.32
2019-01-09T09:03:07.024Z,100174.36
2019-01-09T09:05:08.503Z,100179.29
2019-01-09T09:07:09.886Z,100185.15
2019-01-09T09:09:12.320Z,100189.49
2019-01-09T09:11:13.754Z,100176.11
2019-01-09T09:13:33.982Z,100185.28
2019-01-09T09:15:35.346Z,100189.34
2019-01-09T09:17:36.745Z,100198.39
2019-01-09T09:19:38.167Z,100193.43
2019-01-09T09:21:39.555Z,100199.98
2019-01-09T09:23:40.968Z,100203.35
2019-01-09T09:25:42.401Z,100208.66
2019-01-09T09:27:43.803Z,100217.80
2019-01-09T09:29:45.164Z,100209.42
2019-01-09T09:31:46.828Z,100224.78
2019-01-09T09:33:48.214Z,100216.30
2019-01-09T09:35:49.577Z,100224.41
2019-01-09T09:37:50.994Z,100228.97
2019-01-09T09:39:52.483Z,100229.45
2019-01-09T09:41:53.858Z,100234.45
2019-01-09T09:43:55.277Z,100236.11
2019-01-09T09:45:56.673Z,100234.81
2019-01-09T09:47:58.691Z,100247.77
2019-01-09T09:50:00.282Z,100244.76
2019-01-09T09:52:01.800Z,100255.91
2019-01-09T09:54:03.422Z,100251.42
2019-01-09T09:56:04.805Z,100259.14
2019-01-09T09:58:06.296Z,100260.89
2019-01-09T10:00:13.414Z,100265.81
2019-01-09T10:02:14.792Z,100264.45
2019-01-09T10:04:16.173Z,100270.34
2019-01-09T10:06:17.732Z,100269.81
2019-01-09T10:08:19.122Z,100270.50
2019-01-09T10:10:20.513Z,100273.36
2019-01-09T10:12:21.943Z,100283.83
2019-01-09T10:14:23.375Z,100283.86
2019-01-09T10:16:24.756Z,100286.66
2019-01-09T10:18:26.386Z,100292.41
2019-01-09T10:20:27.771Z,100289.42
2019-01-09T10:22:29.249Z,100282.32
2019-01-09T10:24:30.682Z,100286.81
2019-01-09T10:26:32.067Z,100293.30
2019-01-09T10:28:33.456Z,100293.01
2019-01-09T10:30:34.875Z,100295.55
2019-01-09T10:32:36.295Z,100297.53
2019-01-09T10:34:37.746Z,100300.70
2019-01-09T10:36:39.173Z,100299.58
2019-01-09T10:38:40.558Z,100304.53
2019-01-09T10:40:41.997Z,100300.00
2019-01-09T10:42:43.736Z,100303.88
2019-01-09T10:44:45.121Z,100310.10
2019-01-09T10:46:46.510Z,100320.27
2019-01-09T10:48:47.942Z,100314.02
2019-01-09T10:50:49.365Z,100317.96
2019-01-09T10:52:50.761Z,100319.92
2019-01-09T10:54:52.145Z,100316.84
2019-01-09T10:56:53.543Z,100321.38
2019-01-09T10:58:54.919Z,100324.08
2019-01-09T11:00:56.549Z,100321.75
2019-01-09T11:02:58.033Z,100325.41
2019-01-09T11:04:59.415Z,100322.53
2019-01-09T11:07:00.826Z,100326.28
2019-01-09T11:09:05.210Z,100327.56
2019-01-09T11:11:06.594Z,100330.58
2019-01-09T11:13:08.013Z,100334.94
2019-01-09T11:15:10.997Z,100337.70
2019-01-09T11:17:12.425Z,100330.06
2019-01-09T11:19:13.794Z,100336.72
2019-01-09T11:21:15.225Z,100340.88
2019-01-09T11:23:16.608Z,100341.00
2019-01-09T11:25:21.907Z,100347.86
2019-01-09T11:27:23.371Z,100345.09
2019-01-09T11:29:24.755Z,100342.23
2019-01-09T11:31:26.389Z,100347.72
2019-01-09T11:33:27.772Z,100344.94
2019-01-09T11:35:29.161Z,100346.47
2019-01-09T11:37:31.434Z,100354.27
2019-01-09T11:39:32.825Z,100349.30
2019-01-09T11:41:34.308Z,100346.02
2019-01-09T11:43:35.738Z,100347.12
2019-01-09T11:45:37.121Z,100351.88
2019-01-09T11:47:38.791Z,100360.26
2019-01-09T11:49:40.226Z,100355.70
2019-01-09T11:51:41.645Z,100359.08
2019-01-09T11:53:43.053Z,100357.00
2019-01-09T11:55:44.481Z,100364.48
2019-01-09T11:57:45.916Z,100366.11
2019-01-09T11:59:47.293Z,100359.08
2019-01-09T12:01:48.689Z,100366.71
2019-01-09T12:03:50.238Z,100375.46
2019-01-09T12:05:51.631Z,100373.00
2019-01-09T12:07:53.228Z,100375.69
2019-01-09T12:09:54.854Z,100375.39
2019-01-09T12:11:56.239Z,100374.98
2019-01-09T12:13:57.626Z,100382.94
2019-01-09T12:16:07.781Z,100381.75
2019-01-09T12:18:02.335Z,100376.16
2019-01-09T12:20:08.469Z,100386.23
2019-01-09T12:22:09.865Z,100387.84
2019-01-09T12:24:11.292Z,100391.66
2019-01-09T12:26:12.721Z,100392.64
2019-01-09T12:28:14.119Z,100397.23
2019-01-09T12:30:22.806Z,100402.70
2019-01-09T12:32:24.232Z,100396.30
2019-01-09T12:34:25.596Z,100397.97
2019-01-09T12:36:26.994Z,100401.62
2019-01-09T12:38:28.396Z,100405.11
2019-01-09T12:40:29.989Z,100411.44
2019-01-09T12:42:31.372Z,100420.27
2019-01-09T12:44:32.816Z,100420.01
2019-01-09T12:46:34.231Z,100427.28
2019-01-09T12:48:35.633Z,100430.55
2019-01-09T12:50:37.066Z,100428.08
2019-01-09T12:52:38.447Z,100434.57
2019-01-09T12:54:39.878Z,100438.38
2019-01-09T12:56:41.319Z,100434.27
2019-01-09T12:58:42.708Z,100445.11
2019-01-09T13:00:44.113Z,100445.40
2019-01-09T13:02:45.739Z,100451.55
2019-01-09T13:04:47.105Z,100451.50
2019-01-09T13:06:48.475Z,100458.27
2019-01-09T13:08:49.913Z,100467.30
2019-01-09T13:10:51.284Z,100466.87
2019-01-09T13:12:53.023Z,100473.18
2019-01-09T13:14:54.422Z,100470.28
2019-01-09T13:16:55.855Z,100476.95
2019-01-09T13:18:57.502Z,100473.99
2019-01-09T13:20:58.954Z,100480.45
2019-01-09T13:23:00.375Z,100485.53
2019-01-09T13:25:02.026Z,100489.03
2019-01-09T13:27:03.612Z,100489.62
2019-01-09T13:29:05.034Z,100499.09
2019-01-09T13:31:06.478Z,100491.48
2019-01-09T13:33:07.869Z,100504.30
2019-01-09T13:35:09.450Z,100499.05
2019-01-09T13:37:10.901Z,100504.64
2019-01-09T13:39:12.307Z,100508.52
2019-01-09T13:41:13.719Z,100508.23
2019-01-09T13:43:15.097Z,100509.69
2019-01-09T13:45:18.787Z,100515.25
2019-01-09T13:47:20.333Z,100515.13
2019-01-09T13:49:21.868Z,100518.66
2019-01-09T13:51:23.253Z,100528.83
2019-01-09T13:53:24.624Z,100530.84
2019-01-09T13:55:26.139Z,100532.63
2019-01-09T13:57:27.608Z,100535.83
2019-01-09T13:59:29.019Z,100530.97
2019-01-09T14:01:30.439Z,100535.89
2019-01-09T14:03:31.900Z,100539.83
2019-01-09T14:05:33.310Z,100544.28
2019-01-09T14:07:34.950Z,100543.13
2019-01-09T14:09:39.642Z,100549.48
2019-01-09T14:11:39.633Z,100547.52
2019-01-09T14:13:41.066Z,100555.11
2019-01-09T14:15:42.454Z,100561.77
2019-01-09T14:17:44.130Z,100558.38
2019-01-09T14:19:45.810Z,100562.53
2019-01-09T14:21:47.188Z,100565.13
2019-01-09T14:23:48.606Z,100565.62
2019-01-09T14:25:50.093Z,100566.16
2019-01-09T14:27:51.489Z,100569.67
2019-01-09T14:29:53.018Z,100567.52
2019-01-09T14:31:54.410Z,100573.05
2019-01-09T14:33:55.854Z,100574.39
2019-01-09T14:35:58.703Z,100587.95
2019-01-09T14:38:00.140Z,100588.09
2019-01-09T14:40:04.888Z,100587.28
2019-01-09T14:42:06.286Z,100591.73
2019-01-09T14:44:07.687Z,100589.61
2019-01-09T14:46:09.384Z,100593.20
2019-01-09T14:48:10.786Z,100596.34
2019-01-09T14:50:16.672Z,100595.57
2019-01-09T14:52:18.104Z,100605.16
2019-01-09T14:54:19.506Z,100608.95
2019-01-09T14:56:20.938Z,100613.02
2019-01-09T14:58:22.365Z,100613.49
2019-01-09T15:00:26.080Z,100619.62
2019-01-09T15:02:27.475Z,100631.20
2019-01-09T15:04:28.906Z,100619.63
2019-01-09T15:06:30.408Z,100629.38
2019-01-09T15:08:31.761Z,100639.95
2019-01-09T15:10:33.207Z,100637.00
2019-01-09T15:12:34.584Z,100637.55
2019-01-09T15:14:35.978Z,100640.11
2019-01-09T15:16:37.410Z,100637.69
2019-01-09T15:18:38.856Z,100651.69
2019-01-09T15:20:40.429Z,100644.11
2019-01-09T15:22:41.897Z,100650.28
2019-01-09T15:24:43.299Z,100653.92
2019-01-09T15:26:44.948Z,100656.63
2019-01-09T15:28:46.323Z,100654.78
2019-01-09T15:30:47.771Z,100654.03
2019-01-09T15:32:49.586Z,100653.54
2019-01-09T15:34:50.981Z,100665.84
2019-01-09T15:36:52.361Z,100664.22
2019-01-09T15:38:53.808Z,100669.67
2019-01-09T15:40:55.187Z,100676.34
2019-01-09T15:42:56.834Z,100674.83
2019-01-09T15:44:58.200Z,100677.16
2019-01-09T15:46:59.702Z,100679.74
2019-01-09T15:49:01.084Z,100691.11
2019-01-09T15:51:02.617Z,100678.55
2019-01-09T15:53:04.284Z,100688.66
2019-01-09T15:55:10.174Z,100686.67
2019-01-09T15:57:11.602Z,100689.91
2019-01-09T15:59:13.046Z,100698.47
2019-01-09T16:01:14.498Z,100698.36
2019-01-09T16:03:16.146Z,100699.21
2019-01-09T16:05:17.743Z,100708.16
2019-01-09T16:07:19.190Z,100707.13
2019-01-09T16:09:20.582Z,100701.50
2019-01-09T16:11:21.958Z,100712.82
2019-01-09T16:13:23.432Z,100715.80
2019-01-09T16:15:24.805Z,100715.63
2019-01-09T16:17:26.172Z,100717.95
2019-01-09T16:19:27.623Z,100717.45
2019-01-09T16:21:29.043Z,100720.98
2019-01-09T16:23:30.486Z,100725.25
2019-01-09T16:25:31.871Z,100725.37
2019-01-09T16:27:33.334Z,100724.89
2019-01-09T16:29:34.729Z,100728.02
2019-01-09T16:31:36.110Z,100740.55
2019-01-09T16:33:37.554Z,100725.70
2019-01-09T16:35:39.017Z,100735.22
2019-01-09T16:37:40.410Z,100735.70
2019-01-09T16:39:41.861Z,100734.30
2019-01-09T16:41:43.266Z,100742.97
2019-01-09T16:43:44.957Z,100733.27
2019-01-09T16:45:46.446Z,100745.95
2019-01-09T16:47:47.865Z,100749.25
2019-01-09T16:49:49.353Z,100749.28
2019-01-09T16:51:50.741Z,100749.76
2019-01-09T16:53:52.341Z,100755.33
2019-01-09T16:55:53.773Z,100760.20
2019-01-09T16:57:55.200Z,100757.56
2019-01-09T16:59:56.641Z,100766.32
2019-01-09T17:01:58.108Z,100765.67
2019-01-09T17:03:59.791Z,100766.97
2019-01-09T17:06:01.283Z,100772.23
2019-01-09T17:08:03.837Z,100775.86
2019-01-09T17:10:10.595Z,100776.66
2019-01-09T17:12:12.062Z,100779.57
2019-01-09T17:14:13.635Z,100785.41
2019-01-09T17:16:15.081Z,100785.53
2019-01-09T17:18:16.477Z,100785.41
2019-01-09T17:20:27.530Z,100792.67
2019-01-09T17:22:28.975Z,100788.81
2019-01-09T17:24:30.357Z,100793.04
2019-01-09T17:26:32.868Z,100795.88
2019-01-09T17:28:34.291Z,100796.56
2019-01-09T17:30:35.659Z,100798.75
2019-01-09T17:32:37.440Z,100801.95
2019-01-09T17:34:38.828Z,100807.41
2019-01-09T17:36:40.464Z,100808.09
2019-01-09T17:38:41.895Z,100820.16
2019-01-09T17:40:43.278Z,100826.69
2019-01-09T17:42:44.650Z,100834.28
2019-01-09T17:44:46.359Z,100838.46
2019-01-09T17:46:47.740Z,100824.69
2019-01-09T17:48:49.168Z,100826.35
2019-01-09T17:50:50.609Z,100836.50
2019-01-09T17:52:52.093Z,100852.42
2019-01-09T17:54:53.516Z,100846.34
2019-01-09T17:56:55.300Z,100854.53
2019-01-09T17:58:56.681Z,100857.33
2019-01-09T18:00:58.057Z,100862.33
2019-01-09T18:02:59.488Z,100856.28
2019-01-09T18:05:00.864Z,100874.37
2019-01-09T18:07:02.643Z,100865.89
2019-01-09T18:09:06.351Z,100863.78
2019-01-09T18:11:07.841Z,100880.23
2019-01-09T18:13:09.322Z,100878.77
2019-01-09T18:15:12.876Z,100887.30
2019-01-09T18:17:14.247Z,100883.83
2019-01-09T18:19:15.637Z,100893.38
2019-01-09T18:21:17.081Z,100894.48
2019-01-09T18:23:18.467Z,100894.75
2019-01-09T18:25:25.843Z,100890.89
2019-01-09T18:27:27.301Z,100903.85
2019-01-09T18:29:28.988Z,100896.75
2019-01-09T18:31:50.752Z,100905.72
2019-01-09T18:33:57.647Z,100911.20
2019-01-09T18:36:25.547Z,100913.35
2019-01-09T18:38:38.094Z,100918.52
2019-01-09T18:41:10.772Z,100927.20
2019-01-09T18:43:29.755Z,100929.43
2019-01-09T18:45:43.020Z,100928.86
2019-01-09T18:47:56.189Z,100933.74
2019-01-09T18:50:21.014Z,100938.53
2019-01-09T18:52:46.339Z,100944.09
2019-01-09T18:54:47.773Z,100942.70
2019-01-09T18:56:49.167Z,100937.34
2019-01-09T18:58:50.518Z,100958.52
2019-01-09T19:00:51.972Z,100955.91
2019-01-09T19:02:53.480Z,100968.22
2019-01-09T19:04:54.940Z,100971.22
2019-01-09T19:06:56.376Z,100976.27
2019-01-09T19:08:57.748Z,100984.39
2019-01-09T19:11:07.522Z,100983.62
2019-01-09T19:13:02.500Z,100993.33
2019-01-09T19:15:09.598Z,101002.19
2019-01-09T19:17:11.082Z,101003.24
2019-01-09T19:19:12.719Z,101005.31
2019-01-09T19:21:14.495Z,101012.79
2019-01-09T19:23:15.872Z,101017.02
2019-01-09T19:25:17.426Z,101022.14
2019-01-09T19:27:18.822Z,101023.39
2019-01-09T19:29:20.218Z,101025.22
2019-01-09T19:31:21.760Z,101033.55
2019-01-09T19:33:23.358Z,101039.08
2019-01-09T19:35:24.999Z,101040.86
2019-01-09T19:37:26.383Z,101043.70
2019-01-09T19:39:27.924Z,101049.47
2019-01-09T19:41:29.405Z,101056.99
2019-01-09T19:43:30.809Z,101050.08
2019-01-09T19:45:32.287Z,101059.43
2019-01-09T19:47:33.743Z,101054.97
2019-01-09T19:49:35.119Z,101059.19
2019-01-09T19:51:36.630Z,101055.70
2019-01-09T19:53:38.093Z,101062.72
2019-01-09T19:55:39.488Z,101065.97
2019-01-09T19:57:41.084Z,101063.78
2019-01-09T19:59:42.773Z,101068.86
2019-01-09T20:01:44.367Z,101072.72
2019-01-09T20:03:45.761Z,101075.84
2019-01-09T20:05:47.222Z,101078.08
2019-01-09T20:07:48.802Z,101079.27
2019-01-09T20:09:50.247Z,101090.47
2019-01-09T20:11:51.781Z,101090.03
2019-01-09T20:13:53.208Z,101091.95
2019-01-09T20:15:54.709Z,101100.89
2019-01-09T20:17:56.334Z,101099.88
2019-01-09T20:19:58.059Z,101099.27
2019-01-09T20:21:59.651Z,101101.73
2019-01-09T20:24:01.137Z,101102.84
2019-01-09T20:26:03.288Z,101106.58
2019-01-09T20:28:04.824Z,101108.53
2019-01-09T20:30:11.946Z,101119.06
2019-01-09T20:32:13.490Z,101120.73
2019-01-09T20:34:14.935Z,101119.19
2019-01-09T20:36:16.320Z,101117.14
2019-01-09T20:38:17.778Z,101124.84
2019-01-09T20:40:19.487Z,101130.60
2019-01-09T20:42:20.993Z,101126.79
2019-01-09T20:44:22.567Z,101126.58
2019-01-09T20:46:24.071Z,101138.28
2019-01-09T20:48:25.574Z,101134.23
2019-01-09T20:50:27.658Z,101135.53
2019-01-09T20:52:30.500Z,101145.20
2019-01-09T20:54:31.870Z,101153.07
2019-01-09T20:56:33.223Z,101157.46
2019-01-09T20:58:34.990Z,101155.05
2019-01-09T21:00:36.581Z,101159.11
2019-01-09T21:02:38.125Z,101169.13
2019-01-09T21:04:39.638Z,101164.31
2019-01-09T21:06:41.128Z,101164.70
2019-01-09T21:08:42.504Z,101170.13
2019-01-09T21:10:43.982Z,101165.95
2019-01-09T21:12:45.434Z,101164.47
2019-01-09T21:14:46.842Z,101171.82
2019-01-09T21:16:48.271Z,101170.38
2019-01-09T21:18:49.768Z,101176.83
2019-01-09T21:20:51.256Z,101191.52
2019-01-09T21:22:52.808Z,101189.53
2019-01-09T21:24:54.188Z,101195.78
2019-01-09T21:26:55.583Z,101187.26
2019-01-09T21:28:57.036Z,101191.77
2019-01-09T21:30:58.509Z,101193.00
2019-01-09T21:32:59.988Z,101199.09
2019-01-09T21:35:01.570Z,101209.05
2019-01-09T21:37:03.146Z,101207.72
2019-01-09T21:39:07.441Z,101207.66
2019-01-09T21:41:08.976Z,101213.40
2019-01-09T21:43:10.375Z,101220.66
2019-01-09T21:45:13.563Z,101223.65
2019-01-09T21:47:15.283Z,101228.83
2019-01-09T21:49:16.913Z,101231.88
2019-01-09T21:51:18.357Z,101235.75
2019-01-09T21:53:20.177Z,101238.97
2019-01-09T21:55:21.657Z,101243.92
2019-01-09T21:57:23.122Z,101242.22
2019-01-09T21:59:24.617Z,101241.57
2019-01-09T22:01:26.005Z,101245.53
2019-01-09T22:03:27.391Z,101248.77
2019-01-09T22:05:29.340Z,101251.27
2019-01-09T22:07:30.717Z,101253.70
2019-01-09T22:09:32.201Z,101254.41
2019-01-09T22:11:33.733Z,101261.64
2019-01-09T22:13:35.123Z,101262.81
2019-01-09T22:15:36.619Z,101257.64
2019-01-09T22:17:38.428Z,101261.70
2019-01-09T22:19:39.819Z,101259.13
2019-01-09T22:21:41.228Z,101265.25
2019-01-09T22:23:42.923Z,101263.78
2019-01-09T22:25:44.307Z,101270.29
2019-01-09T22:27:45.939Z,101272.31
2019-01-09T22:29:47.350Z,101277.06
2019-01-09T22:31:48.729Z,101280.86
2019-01-09T22:33:50.105Z,101285.35
2019-01-09T22:35:51.656Z,101281.09
2019-01-09T22:37:53.040Z,101281.70
2019-01-09T22:39:54.430Z,101283.27
2019-01-09T22:41:55.926Z,101291.14
2019-01-09T22:43:57.299Z,101287.66
2019-01-09T22:45:58.686Z,101294.65
2019-01-09T22:48:00.141Z,101302.59
2019-01-09T22:50:01.740Z,101292.31
2019-01-09T22:52:03.141Z,101303.05
2019-01-09T22:54:04.869Z,101304.87
2019-01-09T22:56:06.423Z,101312.63
2019-01-09T22:58:07.797Z,101316.11
2019-01-09T23:00:33.845Z,101324.92
2019-01-09T23:02:35.233Z,101324.77
2019-01-09T23:04:36.642Z,101323.05
2019-01-09T23:06:38.162Z,101331.02
2019-01-09T23:08:39.541Z,101330.45
2019-01-09T23:10:41.044Z,101335.55
2019-01-09T23:12:42.469Z,101340.02
2019-01-09T23:14:43.982Z,101340.30
2019-01-09T23:16:45.367Z,101337.17
2019-01-09T23:18:47.021Z,101344.11
2019-01-09T23:20:48.600Z,101342.16
2019-01-09T23:22:50.088Z,101342.33
2019-01-09T23:24:51.770Z,101351.81
2019-01-09T23:26:53.158Z,101349.28
2019-01-09T23:28:54.540Z,101343.16
2019-01-09T23:30:56.272Z,101347.62
2019-01-09T23:32:57.700Z,101348.72
2019-01-09T23:34:59.190Z,101352.48
2019-01-09T23:37:01.046Z,101354.76